Time;durP1;ratioP1;P1;durP2;ratioP2;P2;SDS_P1;SDS_P2;PMS_P1;PMS_P2;Temp;Humidity;BMP_temperature;BMP_pressure;BME280_temperature;BME280_humidity;BME280_pressure;Samples;Min_cycle;Max_cycle;Signal;HPM_P1;HPM_P2
2021/12/17 00:00:18;;;;;;;53.05;18.50;;;9.70;99.10;;;;;;5076444;28;36988;-56
2021/12/17 00:03:12;;;;;;;58.20;17.58;;;9.70;99.20;;;;;;5074664;28;38437;-56
2021/12/17 00:05:53;;;;;;;54.20;17.88;;;9.70;99.20;;;;;;5075079;27;37495;-56
2021/12/17 00:08:23;;;;;;;46.30;17.83;;;9.70;99.10;;;;;;5076146;27;37355;-56
2021/12/17 00:10:52;;;;;;;53.70;16.73;;;9.70;99.10;;;;;;5076406;27;36569;-56
2021/12/17 00:13:19;;;;;;;57.75;18.52;;;9.70;99.10;;;;;;5076420;27;36454;-56
2021/12/17 00:15:47;;;;;;;58.38;16.33;;;9.70;99.10;;;;;;5076680;28;35942;-56
2021/12/17 00:18:21;;;;;;;43.38;16.83;;;9.70;99.20;;;;;;5074617;27;37421;-56
2021/12/17 00:48:36;;;;;;;31.15;13.27;;;9.70;99.10;;;;;;5121050;27;37895;-56
2021/12/17 00:53:59;;;;;;;28.05;11.60;;;9.70;99.10;;;;;;5075567;27;37168;-56
2021/12/17 00:56:29;;;;;;;28.83;12.07;;;9.70;99.10;;;;;;5121638;27;37940;-56
2021/12/17 00:58:57;;;;;;;27.17;12.48;;;9.70;99.10;;;;;;5121600;27;37940;-56
2021/12/17 01:01:24;;;;;;;34.38;11.82;;;9.70;99.10;;;;;;5120019;27;35568;-56
2021/12/17 01:03:52;;;;;;;26.10;11.27;;;9.70;99.10;;;;;;5120339;27;36246;-56
2021/12/17 01:06:21;;;;;;;26.90;11.68;;;9.70;99.00;;;;;;5120839;27;40034;-56
2021/12/17 01:08:49;;;;;;;29.45;12.27;;;9.70;99.00;;;;;;5119369;27;40460;-56
2021/12/17 01:11:17;;;;;;;22.05;10.57;;;9.70;99.00;;;;;;5120388;27;42106;-56
2021/12/17 01:13:46;;;;;;;46.88;13.50;;;9.70;99.00;;;;;;5121582;27;36766;-56
2021/12/17 01:16:14;;;;;;;26.50;11.68;;;9.70;99.00;;;;;;5121189;27;37566;-56
2021/12/17 01:18:52;;;;;;;25.77;11.38;;;9.60;99.00;;;;;;5119982;27;37422;-56
2021/12/17 01:21:31;;;;;;;27.55;11.82;;;9.60;99.00;;;;;;5120617;27;37130;-56
2021/12/17 01:35:23;;;;;;;22.02;9.68;;;9.60;99.00;;;;;;5120708;27;38676;-56
2021/12/17 01:41:04;;;;;;;21.40;8.82;;;9.60;99.20;;;;;;5069769;27;38426;-56
2021/12/17 01:43:37;;;;;;;18.15;8.23;;;9.60;99.00;;;;;;5120276;27;36889;-56
2021/12/17 01:46:07;;;;;;;17.70;7.72;;;9.60;99.10;;;;;;5119379;27;36044;-56
2021/12/17 01:48:51;;;;;;;16.95;8.10;;;9.60;99.00;;;;;;5120029;27;38549;-56
2021/12/17 01:56:56;;;;;;;17.67;7.47;;;9.50;99.00;;;;;;5121158;27;37554;-56
2021/12/17 01:59:28;;;;;;;31.73;9.23;;;9.50;99.00;;;;;;5119628;27;37607;-56
2021/12/17 02:02:02;;;;;;;23.10;9.20;;;9.50;99.00;;;;;;5119627;27;38373;-55
2021/12/17 02:04:31;;;;;;;39.45;8.60;;;9.50;99.00;;;;;;5119547;27;37078;-56
2021/12/17 02:07:00;;;;;;;28.40;8.65;;;9.50;99.00;;;;;;5120563;27;36374;-56
2021/12/17 02:19:40;;;;;;;27.45;9.07;;;9.50;99.10;;;;;;5119239;27;37597;-56
2021/12/17 02:21:37;;;;;;;22.70;9.40;;;9.50;99.00;;;;;;5120668;27;38973;-56
2021/12/17 02:30:06;;;;;;;26.55;8.25;;;9.50;99.00;;;;;;5120214;27;37481;-56
2021/12/17 02:32:36;;;;;;;24.52;8.98;;;9.50;99.00;;;;;;5116740;27;36338;-56
2021/12/17 02:37:52;;;;;;;30.15;9.10;;;9.50;99.10;;;;;;5119968;27;38185;-56
2021/12/17 02:45:48;;;;;;;16.20;8.50;;;9.40;99.10;;;;;;5119608;27;37340;-56
2021/12/17 02:48:18;;;;;;;18.25;7.93;;;9.40;99.20;;;;;;5119841;27;38322;-56
2021/12/17 02:50:48;;;;;;;15.05;7.25;;;9.40;99.20;;;;;;5119798;27;36362;-63
2021/12/17 02:53:19;;;;;;;15.88;7.72;;;9.50;99.10;;;;;;5118812;27;38080;-63
2021/12/17 02:55:51;;;;;;;16.27;7.65;;;9.40;99.10;;;;;;5120154;27;36762;-63
2021/12/17 02:58:18;;;;;;;16.05;7.93;;;9.40;99.00;;;;;;5119551;27;37033;-63
2021/12/17 03:00:46;;;;;;;15.98;7.20;;;9.50;99.00;;;;;;5119389;27;36642;-64
2021/12/17 03:03:14;;;;;;;15.85;7.95;;;9.50;99.00;;;;;;5117345;27;36814;-63
2021/12/17 03:05:42;;;;;;;14.35;7.57;;;9.50;99.00;;;;;;5118511;27;36106;-63
2021/12/17 03:08:14;;;;;;;13.98;7.53;;;9.50;98.90;;;;;;5119554;27;34944;-63
2021/12/17 03:10:43;;;;;;;12.38;7.25;;;9.50;98.90;;;;;;5118837;27;36467;-64
2021/12/17 03:13:11;;;;;;;13.73;7.57;;;9.40;98.90;;;;;;5119306;27;37812;-63
2021/12/17 03:15:45;;;;;;;12.70;7.43;;;9.50;98.90;;;;;;5118552;27;37266;-63
2021/12/17 03:18:51;;;;;;;13.82;6.93;;;9.50;98.90;;;;;;5118267;27;36788;-64
2021/12/17 03:24:05;;;;;;;14.85;7.63;;;9.50;98.90;;;;;;5119310;27;38211;-63
2021/12/17 03:26:34;;;;;;;12.68;7.18;;;9.50;98.90;;;;;;5118332;27;38100;-63
2021/12/17 03:29:04;;;;;;;15.07;8.50;;;9.40;98.90;;;;;;5119266;27;35866;-63
2021/12/17 03:31:32;;;;;;;15.85;7.97;;;9.50;99.00;;;;;;5117732;27;36479;-63
2021/12/17 03:34:12;;;;;;;14.20;8.77;;;9.40;99.20;;;;;;5118177;27;37594;-63
2021/12/17 03:36:40;;;;;;;17.67;9.68;;;9.40;99.00;;;;;;5119404;27;37080;-63
2021/12/17 03:39:07;;;;;;;18.35;10.30;;;9.40;99.10;;;;;;5119040;27;36912;-64
2021/12/17 03:41:38;;;;;;;19.60;10.43;;;9.40;99.10;;;;;;5118868;27;35997;-64
2021/12/17 03:44:07;;;;;;;14.45;8.25;;;9.40;99.10;;;;;;5121245;27;37422;-64
2021/12/17 03:46:35;;;;;;;12.98;7.57;;;9.50;99.10;;;;;;5121511;27;36667;-64
2021/12/17 03:49:03;;;;;;;14.02;8.57;;;9.50;99.00;;;;;;5122926;27;38307;-63
2021/12/17 03:51:35;;;;;;;16.13;8.73;;;9.50;99.00;;;;;;5122389;27;36435;-56
2021/12/17 03:54:03;;;;;;;14.52;8.38;;;9.50;99.00;;;;;;5122767;27;37717;-56
2021/12/17 03:56:30;;;;;;;22.85;9.50;;;9.50;99.00;;;;;;5122435;27;38506;-56
2021/12/17 03:58:59;;;;;;;16.23;8.75;;;9.50;99.00;;;;;;5121984;27;36992;-56
2021/12/17 04:01:27;;;;;;;12.52;7.95;;;9.50;99.00;;;;;;5121878;27;37439;-56
2021/12/17 04:03:54;;;;;;;14.02;7.60;;;9.50;99.00;;;;;;5122384;27;35771;-56
2021/12/17 04:06:22;;;;;;;14.50;8.85;;;9.50;99.00;;;;;;5120543;27;37102;-56
2021/12/17 04:08:49;;;;;;;13.77;8.10;;;9.50;99.00;;;;;;5122274;27;35751;-56
2021/12/17 04:11:19;;;;;;;12.93;7.50;;;9.50;99.00;;;;;;5121936;27;37221;-56
2021/12/17 04:13:53;;;;;;;17.95;7.82;;;9.50;99.00;;;;;;5122531;27;38133;-55
2021/12/17 04:16:25;;;;;;;13.88;7.43;;;9.50;99.00;;;;;;5122611;27;36033;-56
2021/12/17 04:18:53;;;;;;;12.60;7.32;;;9.50;99.00;;;;;;5122319;27;38154;-56
2021/12/17 04:21:21;;;;;;;11.43;7.03;;;9.50;99.00;;;;;;5122294;27;37633;-56
2021/12/17 04:23:50;;;;;;;12.57;7.88;;;9.50;99.00;;;;;;5122143;27;36810;-56
2021/12/17 04:26:19;;;;;;;13.18;8.10;;;9.40;99.00;;;;;;5121731;27;37213;-56
2021/12/17 04:28:49;;;;;;;13.05;7.78;;;9.40;99.00;;;;;;5122416;27;36986;-56
2021/12/17 04:31:19;;;;;;;14.35;8.45;;;9.50;99.10;;;;;;5120664;27;36245;-55
2021/12/17 04:33:48;;;;;;;13.48;8.45;;;9.50;99.00;;;;;;5121369;27;38384;-55
2021/12/17 04:36:22;;;;;;;13.93;9.05;;;9.50;99.00;;;;;;5121021;27;38692;-55
2021/12/17 04:38:50;;;;;;;12.75;7.47;;;9.50;99.00;;;;;;5121739;27;37176;-55
2021/12/17 04:44:08;;;;;;;16.40;9.68;;;9.40;99.00;;;;;;5123669;27;39284;-55
2021/12/17 04:46:40;;;;;;;15.98;8.98;;;9.40;99.10;;;;;;5121561;27;37954;-55
2021/12/17 04:57:34;;;;;;;15.05;7.90;;;9.30;99.10;;;;;;5121751;27;38800;-56
2021/12/17 05:00:05;;;;;;;14.25;8.40;;;9.30;99.20;;;;;;5121953;27;37713;-55
2021/12/17 05:02:37;;;;;;;12.93;7.95;;;9.30;99.20;;;;;;5120618;27;36702;-55
2021/12/17 05:05:08;;;;;;;23.58;9.88;;;9.40;99.20;;;;;;5121134;27;36278;-55
2021/12/17 05:07:39;;;;;;;13.57;8.32;;;9.40;99.20;;;;;;5121400;27;36305;-55
2021/12/17 05:10:15;;;;;;;13.90;8.05;;;9.40;99.20;;;;;;5121596;27;37069;-55
2021/12/17 05:18:18;;;;;;;13.52;7.88;;;9.40;99.10;;;;;;5122001;27;38728;-55
2021/12/17 05:20:49;;;;;;;14.90;8.23;;;9.40;99.10;;;;;;5120069;27;37015;-55
2021/12/17 05:23:19;;;;;;;14.25;8.52;;;9.40;99.10;;;;;;5121325;27;36547;-55
2021/12/17 05:25:47;;;;;;;15.48;8.30;;;9.40;99.10;;;;;;5121166;27;36700;-55
2021/12/17 05:28:14;;;;;;;13.98;7.90;;;9.30;99.10;;;;;;5121887;27;37284;-56
2021/12/17 05:30:46;;;;;;;14.57;8.35;;;9.40;99.10;;;;;;5120257;27;37370;-63
2021/12/17 05:33:13;;;;;;;16.52;7.82;;;9.40;99.10;;;;;;5119411;27;37577;-63
2021/12/17 05:35:41;;;;;;;15.20;8.15;;;9.40;99.10;;;;;;5120866;27;36289;-63
2021/12/17 05:38:11;;;;;;;15.90;7.57;;;9.40;99.20;;;;;;5121889;27;40757;-64
2021/12/17 05:40:39;;;;;;;16.38;8.60;;;9.30;99.10;;;;;;5120685;27;38421;-63
2021/12/17 05:43:06;;;;;;;17.58;8.07;;;9.40;99.10;;;;;;5120736;27;35279;-63
2021/12/17 05:45:36;;;;;;;18.90;9.15;;;9.40;99.10;;;;;;5121067;27;37915;-63
2021/12/17 05:48:06;;;;;;;15.90;7.95;;;9.40;99.10;;;;;;5121244;27;36095;-63
2021/12/17 05:50:34;;;;;;;17.92;8.45;;;9.40;99.10;;;;;;5120651;27;37812;-63
2021/12/17 05:53:01;;;;;;;15.70;7.85;;;9.40;99.10;;;;;;5120395;27;36592;-63
2021/12/17 05:55:30;;;;;;;18.00;8.43;;;9.40;99.10;;;;;;5120774;27;36306;-63
2021/12/17 05:57:57;;;;;;;13.48;6.90;;;9.40;99.10;;;;;;5120569;27;37723;-63
2021/12/17 06:00:29;;;;;;;13.80;7.60;;;9.40;99.10;;;;;;5119713;27;37027;-63
2021/12/17 06:02:57;;;;;;;16.92;7.80;;;9.40;99.10;;;;;;5118956;27;39078;-63
2021/12/17 06:05:25;;;;;;;14.50;7.32;;;9.40;99.00;;;;;;5119008;27;38122;-63
2021/12/17 06:07:53;;;;;;;18.23;8.35;;;9.40;99.00;;;;;;5119422;27;39778;-62
2021/12/17 06:10:20;;;;;;;13.13;7.28;;;9.40;99.00;;;;;;5120316;27;37843;-63
2021/12/17 06:12:50;;;;;;;20.70;9.15;;;9.40;99.00;;;;;;5119619;27;35209;-62
2021/12/17 06:15:19;;;;;;;14.48;7.47;;;9.40;99.00;;;;;;5120326;27;38412;-62
2021/12/17 06:17:48;;;;;;;17.17;7.65;;;9.40;99.00;;;;;;5120343;27;37287;-62
2021/12/17 06:20:17;;;;;;;14.13;7.78;;;9.30;99.00;;;;;;5120487;27;38389;-63
2021/12/17 06:22:44;;;;;;;14.80;7.90;;;9.40;99.00;;;;;;5120313;27;37534;-63
2021/12/17 06:25:12;;;;;;;14.38;8.13;;;9.40;99.00;;;;;;5120528;27;37817;-63
2021/12/17 06:27:39;;;;;;;15.60;7.90;;;9.40;99.00;;;;;;5120788;27;36115;-63
2021/12/17 06:30:11;;;;;;;17.00;7.82;;;9.40;99.00;;;;;;5118835;27;39217;-62
2021/12/17 06:32:39;;;;;;;14.90;8.35;;;9.40;99.00;;;;;;5118988;27;36566;-63
2021/12/17 06:35:07;;;;;;;15.65;7.72;;;9.30;99.00;;;;;;5119959;27;37189;-63
2021/12/17 06:37:36;;;;;;;13.30;7.65;;;9.40;99.00;;;;;;5119860;27;37277;-63
2021/12/17 06:40:05;;;;;;;14.23;7.80;;;9.30;98.90;;;;;;5120352;27;37192;-63
2021/12/17 06:42:32;;;;;;;14.20;7.95;;;9.30;99.10;;;;;;5120387;27;37276;-63
2021/12/17 06:45:05;;;;;;;15.48;8.05;;;9.30;98.90;;;;;;5119068;27;38394;-63
2021/12/17 06:47:35;;;;;;;13.68;7.47;;;9.30;98.90;;;;;;5118901;27;37310;-63
2021/12/17 06:56:00;;;;;;;15.90;8.48;;;9.30;98.90;;;;;;5117539;27;38366;-63
2021/12/17 07:05:55;;;;;;;16.55;7.18;;;9.30;98.90;;;;;;5049497;28;38419;-55
2021/12/17 07:07:30;;;;;;;14.95;7.35;;;9.30;98.90;;;;;;5118074;27;40851;-56
2021/12/17 07:21:25;;;;;;;12.82;6.03;;;9.30;99.00;;;;;;5085980;27;37406;-55
2021/12/17 07:24:46;;;;;;;16.20;6.88;;;9.30;99.00;;;;;;5121600;27;37407;-56
2021/12/17 07:33:06;;;;;;;14.63;7.25;;;9.30;99.00;;;;;;5058986;28;38052;-56
2021/12/17 07:41:06;;;;;;;15.63;7.35;;;9.30;99.00;;;;;;5081793;27;40045;-56
2021/12/17 07:43:39;;;;;;;21.33;9.95;;;9.30;99.00;;;;;;5083412;27;36077;-56
2021/12/17 07:46:09;;;;;;;18.53;10.00;;;9.30;99.00;;;;;;5083968;27;37886;-56
2021/12/17 07:48:37;;;;;;;17.52;10.68;;;9.30;99.00;;;;;;5084287;27;36509;-56
2021/12/17 07:51:06;;;;;;;18.80;11.82;;;9.30;99.00;;;;;;5084931;27;37152;-55
2021/12/17 07:53:36;;;;;;;41.13;23.73;;;9.30;99.10;;;;;;5084100;27;36174;-63
2021/12/17 07:56:05;;;;;;;52.63;31.58;;;9.30;99.00;;;;;;5084976;27;37158;-63
2021/12/17 07:58:33;;;;;;;112.72;60.38;;;9.30;99.00;;;;;;5083237;27;37269;-63
2021/12/17 08:01:00;;;;;;;108.32;59.08;;;9.30;99.00;;;;;;5083599;27;38455;-63
2021/12/17 08:03:28;;;;;;;105.10;55.92;;;9.40;99.10;;;;;;5082199;27;37797;-63
2021/12/17 08:05:55;;;;;;;66.18;36.00;;;9.30;99.30;;;;;;5083243;27;37289;-62
2021/12/17 08:08:23;;;;;;;52.20;28.00;;;9.40;99.10;;;;;;5083756;27;36533;-62
2021/12/17 08:10:52;;;;;;;44.63;24.25;;;9.30;99.10;;;;;;5083900;27;38991;-63
2021/12/17 08:13:22;;;;;;;26.33;14.40;;;9.40;99.10;;;;;;5083702;27;37886;-63
2021/12/17 08:16:04;;;;;;;24.05;12.23;;;9.40;99.10;;;;;;5082939;27;37591;-63
2021/12/17 08:18:47;;;;;;;20.17;10.90;;;9.40;99.10;;;;;;5082514;27;38303;-63
2021/12/17 08:26:58;;;;;;;14.02;7.75;;;9.50;99.20;;;;;;5076985;27;39337;-63
2021/12/17 08:29:43;;;;;;;16.17;8.80;;;9.50;99.20;;;;;;5080423;27;35200;-62
2021/12/17 08:32:11;;;;;;;15.95;7.93;;;9.50;99.10;;;;;;5081273;27;37608;-63
2021/12/17 08:34:38;;;;;;;14.45;7.72;;;9.50;99.10;;;;;;5092802;27;38490;-63
2021/12/17 08:37:07;;;;;;;15.50;8.13;;;9.60;99.20;;;;;;5121207;27;37417;-63
2021/12/17 08:39:34;;;;;;;16.88;8.75;;;9.60;99.10;;;;;;5120052;27;35840;-62
2021/12/17 08:42:03;;;;;;;14.95;8.35;;;9.60;99.10;;;;;;5120690;27;37556;-63
2021/12/17 08:44:31;;;;;;;14.90;8.60;;;9.60;99.10;;;;;;5120082;27;38541;-63
2021/12/17 08:46:58;;;;;;;17.13;8.82;;;9.60;99.10;;;;;;5121374;27;37689;-63
2021/12/17 08:49:25;;;;;;;16.05;8.77;;;9.60;99.10;;;;;;5121213;27;35436;-63
2021/12/17 08:51:53;;;;;;;14.95;7.47;;;9.70;99.10;;;;;;5120382;27;39074;-63
2021/12/17 08:54:20;;;;;;;14.23;7.18;;;9.70;99.20;;;;;;5119809;27;37967;-63
2021/12/17 08:56:50;;;;;;;15.40;7.97;;;9.70;99.20;;;;;;5120390;27;36669;-63
2021/12/17 08:59:19;;;;;;;13.95;8.65;;;9.70;99.10;;;;;;5120131;27;36848;-63
2021/12/17 09:01:47;;;;;;;13.35;7.63;;;9.70;99.20;;;;;;5118850;27;38784;-63
2021/12/17 09:04:15;;;;;;;16.02;8.02;;;9.70;99.20;;;;;;5120406;27;38006;-63
2021/12/17 09:06:43;;;;;;;14.73;8.63;;;9.70;99.20;;;;;;5119882;27;36993;-56
2021/12/17 09:09:10;;;;;;;16.25;8.35;;;9.70;99.20;;;;;;5120191;27;37049;-56
2021/12/17 09:11:38;;;;;;;14.13;8.20;;;9.70;99.20;;;;;;5118260;27;37734;-56
2021/12/17 09:14:07;;;;;;;13.68;7.75;;;9.70;99.20;;;;;;5117411;27;37544;-56
2021/12/17 09:16:36;;;;;;;13.25;7.55;;;9.80;99.10;;;;;;5120077;27;37651;-56
2021/12/17 09:19:05;;;;;;;16.63;8.45;;;9.80;99.10;;;;;;5120047;27;37649;-56
2021/12/17 09:21:33;;;;;;;16.40;8.50;;;9.80;99.10;;;;;;5119898;27;37995;-56
2021/12/17 09:24:00;;;;;;;15.13;8.30;;;9.90;99.20;;;;;;5119783;27;37718;-56
2021/12/17 09:26:28;;;;;;;15.07;7.97;;;9.80;99.20;;;;;;5119861;27;38342;-56
2021/12/17 09:28:55;;;;;;;16.60;7.43;;;9.90;99.20;;;;;;5120255;27;38039;-56
2021/12/17 09:31:22;;;;;;;14.43;7.93;;;9.90;99.20;;;;;;5117625;27;38146;-56
2021/12/17 09:33:51;;;;;;;13.52;8.02;;;9.90;99.20;;;;;;5119235;27;37338;-56
2021/12/17 09:36:19;;;;;;;16.83;7.55;;;9.90;99.20;;;;;;5119423;27;37320;-56
2021/12/17 09:38:49;;;;;;;17.80;7.85;;;9.90;99.30;;;;;;5121139;27;36418;-56
2021/12/17 09:41:17;;;;;;;13.40;6.95;;;9.90;99.20;;;;;;5119238;27;37701;-56
2021/12/17 09:43:44;;;;;;;11.85;6.57;;;9.90;99.20;;;;;;5119741;27;37298;-56
2021/12/17 09:46:12;;;;;;;14.60;6.88;;;10.00;99.30;;;;;;5118035;27;35708;-56
2021/12/17 09:48:39;;;;;;;12.30;6.35;;;10.00;99.30;;;;;;5120271;27;37487;-55
2021/12/17 09:51:09;;;;;;;14.45;6.55;;;10.00;99.20;;;;;;5119786;27;37532;-56
2021/12/17 09:53:37;;;;;;;12.15;6.10;;;10.00;99.30;;;;;;5119839;27;37184;-56
2021/12/17 09:56:06;;;;;;;19.27;6.60;;;10.00;99.30;;;;;;5120636;27;37414;-56
2021/12/17 09:58:34;;;;;;;12.70;6.22;;;10.10;99.30;;;;;;5119513;27;36392;-56
2021/12/17 10:01:02;;;;;;;14.43;7.10;;;10.10;99.30;;;;;;5119861;27;41772;-56
2021/12/17 10:03:29;;;;;;;15.75;6.75;;;10.10;99.30;;;;;;5119168;27;37142;-56
2021/12/17 10:05:57;;;;;;;15.13;7.25;;;10.10;99.20;;;;;;5118328;27;35991;-56
2021/12/17 10:08:26;;;;;;;11.85;6.18;;;10.10;99.30;;;;;;5119169;27;38682;-56
2021/12/17 10:10:58;;;;;;;12.77;6.22;;;10.10;99.30;;;;;;5119618;27;36210;-57
2021/12/17 10:13:27;;;;;;;16.77;6.75;;;10.10;99.30;;;;;;5119874;27;36175;-57
2021/12/17 10:15:56;;;;;;;15.27;6.85;;;10.10;99.30;;;;;;5120734;27;37511;-57
2021/12/17 10:18:35;;;;;;;11.48;6.22;;;10.10;99.30;;;;;;5121041;27;38043;-57
2021/12/17 10:21:05;;;;;;;12.73;6.85;;;10.10;99.40;;;;;;5119467;27;36296;-63
2021/12/17 10:23:35;;;;;;;16.10;6.43;;;10.10;99.40;;;;;;5120331;27;37635;-62
2021/12/17 10:26:04;;;;;;;11.73;6.40;;;10.10;99.40;;;;;;5119019;27;35425;-63
2021/12/17 10:28:31;;;;;;;14.75;7.68;;;10.20;99.50;;;;;;5118330;27;35423;-63
2021/12/17 10:30:59;;;;;;;15.98;8.05;;;10.20;99.50;;;;;;5118465;27;38694;-63
2021/12/17 10:33:29;;;;;;;14.35;7.22;;;10.20;99.50;;;;;;5118178;27;37487;-63
2021/12/17 10:36:00;;;;;;;12.50;7.20;;;10.00;99.50;;;;;;5118794;27;38195;-63
2021/12/17 10:38:28;;;;;;;14.75;7.88;;;10.20;99.50;;;;;;5119858;27;35388;-63
2021/12/17 10:41:02;;;;;;;14.00;7.60;;;10.20;99.50;;;;;;5119892;27;37662;-63
2021/12/17 10:43:35;;;;;;;15.48;8.40;;;10.20;99.60;;;;;;5119011;27;37427;-63
2021/12/17 10:46:09;;;;;;;16.23;7.57;;;10.20;99.60;;;;;;5120082;27;38338;-63
2021/12/17 10:48:49;;;;;;;10.63;6.28;;;10.30;99.60;;;;;;5120259;27;36639;-63
2021/12/17 10:51:46;;;;;;;12.80;5.72;;;10.30;99.60;;;;;;5121497;27;37140;-63
2021/12/17 10:54:16;;;;;;;12.45;5.80;;;10.30;99.60;;;;;;5122595;27;37044;-63
2021/12/17 10:56:49;;;;;;;9.93;4.90;;;10.30;99.60;;;;;;5121700;27;36868;-63
2021/12/17 10:59:18;;;;;;;12.00;6.20;;;10.30;99.60;;;;;;5122259;27;36477;-63
2021/12/17 11:01:47;;;;;;;10.63;6.40;;;10.30;99.70;;;;;;5122450;27;36335;-63
2021/12/17 11:04:21;;;;;;;12.85;5.28;;;10.40;99.70;;;;;;5122109;27;37293;-63
2021/12/17 11:06:51;;;;;;;11.23;5.50;;;10.40;99.70;;;;;;5122573;27;35840;-63
2021/12/17 11:09:39;;;;;;;9.77;5.40;;;10.40;99.70;;;;;;5123127;27;36386;-63
2021/12/17 11:12:32;;;;;;;11.48;5.60;;;10.40;99.70;;;;;;5122036;27;37759;-63
2021/12/17 11:15:11;;;;;;;8.77;4.80;;;10.40;99.70;;;;;;5123159;27;38575;-63
2021/12/17 11:17:39;;;;;;;12.43;6.13;;;10.40;99.70;;;;;;5122196;27;38204;-63
2021/12/17 11:20:11;;;;;;;11.60;5.72;;;10.40;99.70;;;;;;5120597;27;37583;-63
2021/12/17 11:22:39;;;;;;;7.82;4.65;;;10.40;99.70;;;;;;5121913;27;38925;-63
2021/12/17 11:25:07;;;;;;;9.27;5.13;;;10.40;99.70;;;;;;5120112;27;36160;-63
2021/12/17 11:27:36;;;;;;;13.02;6.05;;;10.40;99.80;;;;;;5123888;27;35654;-63
2021/12/17 11:30:05;;;;;;;10.20;5.55;;;10.40;99.80;;;;;;5120674;27;37744;-63
2021/12/17 11:32:35;;;;;;;11.32;6.05;;;10.40;99.80;;;;;;5120831;27;38735;-57
2021/12/17 11:35:03;;;;;;;9.70;5.07;;;10.40;99.80;;;;;;5121821;27;37291;-57
2021/12/17 11:37:31;;;;;;;11.63;6.53;;;10.40;99.90;;;;;;5122634;27;37682;-57
2021/12/17 11:40:02;;;;;;;10.32;5.68;;;10.40;99.90;;;;;;5121340;27;36743;-63
2021/12/17 11:43:00;;;;;;;9.88;5.15;;;10.40;99.90;;;;;;5122042;27;37544;-63
2021/12/17 11:45:29;;;;;;;7.40;4.43;;;10.40;99.90;;;;;;5119814;27;36829;-63
2021/12/17 11:48:12;;;;;;;8.55;4.90;;;10.30;99.90;;;;;;5122249;27;38824;-63
2021/12/17 11:50:40;;;;;;;9.27;4.68;;;10.40;99.90;;;;;;5122179;27;36538;-63
2021/12/17 11:53:19;;;;;;;7.05;4.28;;;10.30;99.90;;;;;;5121895;27;37314;-63
2021/12/17 11:55:49;;;;;;;7.63;4.22;;;10.30;99.90;;;;;;5122275;27;37468;-57
2021/12/17 11:58:44;;;;;;;7.85;4.00;;;10.30;99.90;;;;;;5121701;27;36972;-57
2021/12/17 12:01:12;;;;;;;8.93;4.82;;;10.30;99.90;;;;;;5121301;27;37034;-57
2021/12/17 12:03:39;;;;;;;7.50;4.30;;;10.30;99.90;;;;;;5118886;27;36411;-57
2021/12/17 12:06:07;;;;;;;7.65;4.20;;;10.30;99.90;;;;;;5120511;27;37573;-57
2021/12/17 12:08:45;;;;;;;8.02;3.97;;;10.30;99.90;;;;;;5119706;27;36944;-57
2021/12/17 12:11:15;;;;;;;7.15;4.45;;;10.30;99.90;;;;;;5120123;27;37905;-57
2021/12/17 12:13:46;;;;;;;10.88;6.40;;;10.20;99.90;;;;;;5120817;27;36265;-57
2021/12/17 12:16:19;;;;;;;9.23;6.32;;;10.20;99.90;;;;;;5120443;27;39560;-57
2021/12/17 12:18:52;;;;;;;9.88;5.57;;;10.20;99.90;;;;;;5119936;27;37119;-57
2021/12/17 12:21:21;;;;;;;8.67;5.67;;;10.20;99.90;;;;;;5120522;27;35990;-57
2021/12/17 12:23:57;;;;;;;7.63;4.40;;;10.20;99.90;;;;;;5119891;27;37576;-57
2021/12/17 12:26:40;;;;;;;8.57;4.35;;;10.20;99.90;;;;;;5120462;27;37881;-57
2021/12/17 12:29:17;;;;;;;6.30;3.90;;;10.20;99.90;;;;;;5119946;27;35911;-63
2021/12/17 12:31:57;;;;;;;6.68;3.65;;;10.30;99.90;;;;;;5120964;27;36196;-62
2021/12/17 12:34:41;;;;;;;6.75;3.58;;;10.30;99.90;;;;;;5121121;27;38167;-63
2021/12/17 12:37:24;;;;;;;7.03;4.00;;;10.30;99.90;;;;;;5121915;27;36871;-63
2021/12/17 12:40:18;;;;;;;5.68;3.28;;;10.30;99.90;;;;;;5122420;27;36951;-63
2021/12/17 12:43:02;;;;;;;7.35;3.70;;;10.40;99.90;;;;;;5120887;27;36375;-63
2021/12/17 12:45:32;;;;;;;6.13;3.42;;;10.30;99.90;;;;;;5120992;27;37454;-62
2021/12/17 12:48:01;;;;;;;7.13;3.90;;;10.30;99.90;;;;;;5122073;27;37389;-63
2021/12/17 12:50:33;;;;;;;8.50;4.70;;;10.30;99.90;;;;;;5122542;27;36943;-63
2021/12/17 12:53:05;;;;;;;10.73;5.37;;;10.30;99.90;;;;;;5122373;27;35427;-63
2021/12/17 12:55:35;;;;;;;9.75;5.28;;;10.50;99.90;;;;;;5120334;27;38367;-63
2021/12/17 12:58:08;;;;;;;12.80;6.88;;;10.40;99.90;;;;;;5120993;27;37615;-63
2021/12/17 13:00:46;;;;;;;9.35;5.10;;;10.40;99.90;;;;;;5121109;27;36117;-62
2021/12/17 13:03:15;;;;;;;7.85;5.38;;;10.40;99.90;;;;;;5119909;27;38114;-63
2021/12/17 13:05:44;;;;;;;7.97;5.20;;;10.40;99.90;;;;;;5119923;27;38144;-63
2021/12/17 13:08:14;;;;;;;6.70;4.63;;;10.40;99.90;;;;;;5121332;27;37344;-63
2021/12/17 13:10:44;;;;;;;7.68;4.68;;;10.40;99.90;;;;;;5121182;27;35852;-63
2021/12/17 13:13:18;;;;;;;6.63;3.65;;;10.40;99.90;;;;;;5120659;27;38024;-63
2021/12/17 13:16:03;;;;;;;6.28;3.45;;;10.40;99.90;;;;;;5119178;27;38127;-63
2021/12/17 13:21:33;;;;;;;7.45;3.97;;;10.40;99.80;;;;;;5118425;27;37838;-57
2021/12/17 13:24:10;;;;;;;7.38;4.82;;;10.40;99.90;;;;;;5118309;27;37520;-57
2021/12/17 13:26:39;;;;;;;6.97;3.53;;;10.40;99.90;;;;;;5120201;27;37323;-57
2021/12/17 13:29:11;;;;;;;5.15;2.95;;;10.40;99.80;;;;;;5121052;27;37287;-57
2021/12/17 13:31:47;;;;;;;5.45;2.90;;;10.40;99.60;;;;;;5120495;27;38055;-57
2021/12/17 13:34:20;;;;;;;7.60;3.53;;;10.40;99.60;;;;;;5119424;27;36620;-57
2021/12/17 13:36:55;;;;;;;5.45;3.53;;;10.40;99.70;;;;;;5119298;27;37942;-57
2021/12/17 13:39:25;;;;;;;5.93;3.22;;;10.40;99.70;;;;;;5120259;27;38277;-57
2021/12/17 13:41:53;;;;;;;5.97;3.63;;;10.40;99.70;;;;;;5121392;27;38927;-57
2021/12/17 13:44:35;;;;;;;6.32;4.18;;;10.40;99.80;;;;;;5120946;27;36415;-57
2021/12/17 13:47:29;;;;;;;6.35;4.03;;;10.40;99.80;;;;;;5120665;27;37226;-57
2021/12/17 13:50:12;;;;;;;8.40;4.75;;;10.40;99.80;;;;;;5117932;27;36225;-57
2021/12/17 13:52:45;;;;;;;7.90;5.35;;;10.50;99.80;;;;;;5120913;27;37069;-57
2021/12/17 13:55:15;;;;;;;8.57;4.80;;;10.50;99.80;;;;;;5121108;27;36485;-57
2021/12/17 13:57:43;;;;;;;8.65;4.95;;;10.50;99.80;;;;;;5119683;27;37537;-57
2021/12/17 14:00:14;;;;;;;7.68;5.15;;;10.50;99.80;;;;;;5120241;27;39645;-57
2021/12/17 14:02:44;;;;;;;6.93;4.47;;;10.50;99.70;;;;;;5120207;27;39042;-57
2021/12/17 14:05:16;;;;;;;8.02;4.70;;;10.50;99.70;;;;;;5120642;27;37044;-56
2021/12/17 14:07:50;;;;;;;7.55;4.78;;;10.60;99.80;;;;;;5120681;27;37384;-57
2021/12/17 14:10:18;;;;;;;;;;;10.50;99.70;;;;;;5121120;27;36950;-57
2021/12/17 14:12:46;;;;;;;10.15;4.63;;;10.50;99.60;;;;;;5120806;27;38075;-57
2021/12/17 14:15:18;;;;;;;8.73;5.05;;;10.50;99.60;;;;;;5120395;27;35808;-57
2021/12/17 14:17:49;;;;;;;7.20;5.10;;;10.50;99.60;;;;;;5120682;27;37344;-63
2021/12/17 14:20:18;;;;;;;6.93;4.35;;;10.50;99.60;;;;;;5118876;27;37239;-63
2021/12/17 14:22:47;;;;;;;7.97;4.95;;;10.50;99.60;;;;;;5120518;27;39362;-63
2021/12/17 14:25:26;;;;;;;6.65;4.55;;;10.50;99.60;;;;;;5120067;27;37191;-63
2021/12/17 14:27:54;;;;;;;6.03;4.07;;;10.50;99.50;;;;;;5120742;27;37384;-63
2021/12/17 14:30:26;;;;;;;7.22;4.65;;;10.50;99.50;;;;;;5119986;27;37830;-63
2021/12/17 14:32:54;;;;;;;7.43;5.00;;;10.50;99.50;;;;;;5119021;27;38277;-63
2021/12/17 14:35:49;;;;;;;7.53;4.35;;;10.60;99.50;;;;;;5119522;27;37695;-63
2021/12/17 14:38:20;;;;;;;7.10;4.13;;;10.50;99.40;;;;;;5121475;27;20089;-62
2021/12/17 14:40:59;;;;;;;6.20;3.95;;;10.50;99.40;;;;;;5119718;27;37273;-57
2021/12/17 14:43:31;;;;;;;9.48;4.05;;;10.50;99.40;;;;;;5119519;27;38107;-57
2021/12/17 14:46:11;;;;;;;6.28;3.92;;;10.50;99.40;;;;;;5119126;27;36624;-57
2021/12/17 14:48:51;;;;;;;8.20;3.88;;;10.50;99.40;;;;;;5120309;27;37356;-63
2021/12/17 15:05:20;;;;;;;6.93;3.95;;;10.40;99.40;;;;;;5038771;28;37466;-61
2021/12/17 15:07:48;;;;;;;8.05;4.63;;;10.40;99.40;;;;;;5101655;27;36411;-63
2021/12/17 15:10:18;;;;;;;11.63;5.72;;;10.40;99.40;;;;;;5118800;27;37694;-63
2021/12/17 15:12:46;;;;;;;10.68;5.30;;;10.40;99.30;;;;;;5117997;27;36196;-63
2021/12/17 15:15:17;;;;;;;6.22;4.15;;;10.40;99.30;;;;;;5119575;27;37095;-63
2021/12/17 15:17:46;;;;;;;8.05;4.93;;;10.40;99.30;;;;;;5117937;27;36788;-63
2021/12/17 15:20:16;;;;;;;7.68;5.00;;;10.40;99.20;;;;;;5118834;27;38826;-57
2021/12/17 15:22:45;;;;;;;11.00;5.28;;;10.40;99.30;;;;;;5118053;27;36053;-57
2021/12/17 15:25:14;;;;;;;7.25;4.63;;;10.40;99.30;;;;;;5117389;27;37833;-57
2021/12/17 15:27:42;;;;;;;10.80;5.72;;;10.40;99.30;;;;;;5118479;27;37126;-57
2021/12/17 15:30:12;;;;;;;7.78;5.00;;;10.40;99.30;;;;;;5117998;27;37706;-57
2021/12/17 15:32:40;;;;;;;7.88;4.55;;;10.40;99.30;;;;;;5117150;27;37843;-57
2021/12/17 15:35:08;;;;;;;7.78;4.82;;;10.40;99.20;;;;;;5118049;27;36784;-57